< < Back
Terminal Aerodrome Forecast


Current Version              Previous Versions:   1  2  3  4  5  6  7  8  9  

Terminal Aerodrome Forecast

377
FTUS44 KBMX 030520
TAFANB
TAF
KANB 030520Z 0306/0406 00000KT P6SM SCT250
     FM031600 36005KT P6SM SCT250=

Latest METAR

977
SAUS70 KWBC 040500 RRD
MTRANB
METAR KANB 040453Z AUTO 10003KT 10SM CLR 22/19 A2996 RMK AO2 SLP134
T02220194


USA.gov is the U.S. government's official web portal to all federal, state and local government web resources and services.